Time;durP1;ratioP1;P1;durP2;ratioP2;P2;SDS_P1;SDS_P2;PMS_P1;PMS_P2;Temp;Humidity;BMP_temperature;BMP_pressure;BME280_temperature;BME280_humidity;BME280_pressure;Samples;Min_cycle;Max_cycle;Signal;HPM_P1;HPM_P2
2023/06/01 00:00:10;;;;;;;;;11.33;10.33;;;;;;;;4953910;28;45670;-80
2023/06/01 00:02:35;;;;;;;;;13.00;10.00;;;;;;;;4953074;28;45423;-79
2023/06/01 00:05:01;;;;;;;;;12.67;11.33;;;;;;;;4952091;28;47077;-79
2023/06/01 00:07:29;;;;;;;;;16.33;10.00;;;;;;;;4954329;28;45641;-80
2023/06/01 00:09:55;;;;;;;;;12.00;9.67;;;;;;;;4949979;28;45911;-79
2023/06/01 00:12:20;;;;;;;;;12.00;11.67;;;;;;;;4951663;28;46513;-79
2023/06/01 00:14:45;;;;;;;;;13.67;11.67;;;;;;;;4953406;28;45743;-79
2023/06/01 00:17:10;;;;;;;;;11.33;11.33;;;;;;;;4964140;28;45761;-79
2023/06/01 00:19:36;;;;;;;;;8.67;8.67;;;;;;;;4954076;28;46099;-80
2023/06/01 00:22:01;;;;;;;;;14.67;9.00;;;;;;;;4953244;28;45638;-79
2023/06/01 00:24:26;;;;;;;;;12.00;12.00;;;;;;;;4951698;28;46172;-79
2023/06/01 00:26:51;;;;;;;;;12.00;9.33;;;;;;;;4943844;28;45685;-80
2023/06/01 00:29:17;;;;;;;;;16.00;14.33;;;;;;;;4953092;28;45781;-80
2023/06/01 00:31:42;;;;;;;;;12.33;10.67;;;;;;;;4955433;28;45517;-80
2023/06/01 00:34:07;;;;;;;;;13.67;12.00;;;;;;;;4949956;28;48097;-79
2023/06/01 00:36:33;;;;;;;;;13.00;10.33;;;;;;;;4952969;28;45871;-81
2023/06/01 00:39:02;;;;;;;;;12.67;12.67;;;;;;;;4954309;28;45504;-79
2023/06/01 00:41:28;;;;;;;;;16.00;13.33;;;;;;;;4954124;28;46199;-80
2023/06/01 00:43:53;;;;;;;;;15.67;13.33;;;;;;;;4953469;28;45732;-80
2023/06/01 00:46:18;;;;;;;;;12.33;9.67;;;;;;;;4955591;28;45847;-80
2023/06/01 00:48:44;;;;;;;;;18.33;11.00;;;;;;;;4948771;28;45479;-78
2023/06/01 00:51:10;;;;;;;;;14.67;13.00;;;;;;;;4949579;28;45594;-82
2023/06/01 00:53:35;;;;;;;;;16.67;16.33;;;;;;;;4952718;28;45788;-80
2023/06/01 00:56:01;;;;;;;;;18.00;13.00;;;;;;;;4961194;28;45311;-80
2023/06/01 00:58:26;;;;;;;;;10.67;10.67;;;;;;;;4950443;28;45453;-79
2023/06/01 01:00:53;;;;;;;;;11.00;11.00;;;;;;;;4955600;28;45809;-80
2023/06/01 01:03:18;;;;;;;;;14.67;13.00;;;;;;;;4953775;28;45514;-80
2023/06/01 01:05:44;;;;;;;;;15.67;10.67;;;;;;;;4950572;28;45688;-81
2023/06/01 01:08:18;;;;;;;;;15.67;13.33;;;;;;;;4956248;28;45786;-79
2023/06/01 01:10:46;;;;;;;;;13.67;11.33;;;;;;;;4954588;28;47266;-79
2023/06/01 01:13:30;;;;;;;;;10.00;9.00;;;;;;;;4957599;28;46162;-81
2023/06/01 01:15:55;;;;;;;;;12.67;10.33;;;;;;;;4949619;28;45404;-80
2023/06/01 01:18:27;;;;;;;;;21.33;17.67;;;;;;;;4955201;28;45509;-78
2023/06/01 01:20:58;;;;;;;;;14.00;11.33;;;;;;;;4975186;28;45791;-78
2023/06/01 01:23:38;;;;;;;;;13.00;13.00;;;;;;;;4959778;28;45739;-79
2023/06/01 01:26:06;;;;;;;;;12.67;11.67;;;;;;;;4969167;28;46175;-79
2023/06/01 01:28:35;;;;;;;;;19.33;15.33;;;;;;;;4958206;28;45397;-80
2023/06/01 01:31:02;;;;;;;;;13.67;13.00;;;;;;;;4963423;28;45986;-79
2023/06/01 01:33:28;;;;;;;;;15.33;12.67;;;;;;;;4948242;28;46421;-79
2023/06/01 01:35:54;;;;;;;;;19.33;13.33;;;;;;;;4962428;28;45984;-80
2023/06/01 01:38:20;;;;;;;;;11.67;10.33;;;;;;;;4942937;28;45849;-78
2023/06/01 01:40:45;;;;;;;;;18.33;14.33;;;;;;;;4955131;28;45492;-81
2023/06/01 01:43:10;;;;;;;;;15.67;14.00;;;;;;;;4963019;28;46244;-80
2023/06/01 01:45:36;;;;;;;;;15.67;15.33;;;;;;;;4954234;28;45509;-80
2023/06/01 01:48:11;;;;;;;;;17.67;14.00;;;;;;;;4934207;28;45532;-79
2023/06/01 01:50:38;;;;;;;;;18.00;17.33;;;;;;;;4941248;28;45442;-80
2023/06/01 01:53:06;;;;;;;;;18.00;15.33;;;;;;;;4950437;28;46314;-80
2023/06/01 01:55:33;;;;;;;;;27.67;21.33;;;;;;;;4952680;28;45832;-80
2023/06/01 01:57:59;;;;;;;;;28.67;21.67;;;;;;;;4951867;28;45424;-79
2023/06/01 02:00:25;;;;;;;;;23.00;20.67;;;;;;;;4947995;28;46044;-79
2023/06/01 02:02:50;;;;;;;;;21.67;19.00;;;;;;;;4963716;28;45775;-79
2023/06/01 02:05:16;;;;;;;;;27.00;22.00;;;;;;;;4966151;28;45772;-81
2023/06/01 02:07:41;;;;;;;;;25.67;19.00;;;;;;;;4960847;28;45540;-79
2023/06/01 02:10:06;;;;;;;;;20.00;18.33;;;;;;;;4963957;28;45483;-80
2023/06/01 02:12:32;;;;;;;;;24.67;18.67;;;;;;;;4956927;28;46538;-78
2023/06/01 02:14:57;;;;;;;;;21.33;20.00;;;;;;;;4958883;28;45687;-78
2023/06/01 02:17:25;;;;;;;;;22.33;19.33;;;;;;;;4947309;28;45845;-80
2023/06/01 02:19:50;;;;;;;;;29.00;21.00;;;;;;;;4949293;28;46112;-78
2023/06/01 02:22:15;;;;;;;;;25.33;22.67;;;;;;;;4964003;28;46694;-78
2023/06/01 02:24:40;;;;;;;;;29.33;27.33;;;;;;;;4952378;28;45427;-79
2023/06/01 02:27:06;;;;;;;;;22.33;21.00;;;;;;;;4954444;28;45635;-77
2023/06/01 02:29:32;;;;;;;;;19.33;17.67;;;;;;;;4960485;28;45799;-78
2023/06/01 02:31:57;;;;;;;;;34.00;26.67;;;;;;;;4951204;28;46791;-79
2023/06/01 02:34:22;;;;;;;;;21.33;19.00;;;;;;;;4950922;28;45893;-78
2023/06/01 02:36:48;;;;;;;;;26.33;22.00;;;;;;;;4942362;28;45412;-79
2023/06/01 02:39:13;;;;;;;;;26.00;24.00;;;;;;;;4963202;28;45333;-79
2023/06/01 02:41:38;;;;;;;;;24.00;17.67;;;;;;;;4954008;28;45603;-78
2023/06/01 02:44:04;;;;;;;;;30.00;23.67;;;;;;;;4953218;28;45436;-79
2023/06/01 02:46:29;;;;;;;;;27.67;23.33;;;;;;;;4944482;28;45476;-80
2023/06/01 02:48:55;;;;;;;;;28.00;25.67;;;;;;;;4948376;28;45566;-79
2023/06/01 02:51:20;;;;;;;;;28.33;19.67;;;;;;;;4944210;28;46090;-79
2023/06/01 02:53:48;;;;;;;;;31.00;24.33;;;;;;;;4944288;28;45924;-80
2023/06/01 02:56:14;;;;;;;;;27.67;22.00;;;;;;;;4951191;28;45378;-79
2023/06/01 02:58:41;;;;;;;;;24.00;23.67;;;;;;;;4968321;28;46112;-78
2023/06/01 03:01:07;;;;;;;;;28.67;26.33;;;;;;;;4954649;28;45738;-79
2023/06/01 03:03:32;;;;;;;;;28.00;23.67;;;;;;;;4954501;28;45880;-80
2023/06/01 03:05:58;;;;;;;;;29.67;24.67;;;;;;;;4963718;28;45740;-77
2023/06/01 03:08:26;;;;;;;;;21.67;17.00;;;;;;;;4958109;28;45808;-78
2023/06/01 03:10:52;;;;;;;;;28.00;25.67;;;;;;;;4952807;28;45412;-79
2023/06/01 03:13:17;;;;;;;;;25.00;22.33;;;;;;;;4966038;28;45714;-77
2023/06/01 03:15:43;;;;;;;;;30.33;25.33;;;;;;;;4968093;28;45677;-77
2023/06/01 03:18:11;;;;;;;;;40.00;29.33;;;;;;;;4966350;28;45467;-77
2023/06/01 03:20:36;;;;;;;;;22.67;22.33;;;;;;;;4956102;28;46714;-78
2023/06/01 03:23:02;;;;;;;;;36.33;30.67;;;;;;;;4954774;28;45780;-79
2023/06/01 03:25:27;;;;;;;;;32.00;19.00;;;;;;;;4952868;28;45839;-78
2023/06/01 03:27:52;;;;;;;;;26.67;23.67;;;;;;;;4949109;28;45908;-78
2023/06/01 03:30:18;;;;;;;;;31.00;28.00;;;;;;;;4950887;28;45742;-77
2023/06/01 03:32:44;;;;;;;;;35.67;26.00;;;;;;;;4957076;28;45836;-76
2023/06/01 03:35:09;;;;;;;;;32.33;27.67;;;;;;;;4964278;28;45423;-79
2023/06/01 03:37:35;;;;;;;;;26.33;21.67;;;;;;;;4964012;28;45707;-79
2023/06/01 03:40:01;;;;;;;;;33.33;28.33;;;;;;;;4959355;28;45543;-82
2023/06/01 03:42:26;;;;;;;;;33.00;29.33;;;;;;;;4956652;28;45442;-79
2023/06/01 03:44:52;;;;;;;;;38.67;31.00;;;;;;;;4951663;28;45734;-78
2023/06/01 03:47:17;;;;;;;;;25.33;22.00;;;;;;;;4956385;28;45710;-78
2023/06/01 03:49:42;;;;;;;;;32.00;28.67;;;;;;;;4954410;28;47073;-78
2023/06/01 03:52:08;;;;;;;;;29.33;24.00;;;;;;;;4972133;28;45363;-78
2023/06/01 03:54:34;;;;;;;;;28.00;25.67;;;;;;;;4939660;28;45437;-78
2023/06/01 03:56:59;;;;;;;;;29.00;25.00;;;;;;;;4943853;28;45773;-79
2023/06/01 03:59:25;;;;;;;;;32.00;28.33;;;;;;;;4949768;28;45476;-78
2023/06/01 04:01:51;;;;;;;;;37.33;32.00;;;;;;;;4941636;28;45519;-77
2023/06/01 04:04:17;;;;;;;;;38.67;33.00;;;;;;;;4945223;28;45638;-79
2023/06/01 04:06:45;;;;;;;;;30.00;30.00;;;;;;;;4939058;28;45881;-78
2023/06/01 04:09:10;;;;;;;;;34.33;28.00;;;;;;;;4962832;28;46974;-79
2023/06/01 04:11:36;;;;;;;;;34.00;29.67;;;;;;;;4957284;28;45634;-77
2023/06/01 04:14:01;;;;;;;;;32.67;28.33;;;;;;;;4955423;28;45355;-78
2023/06/01 04:16:27;;;;;;;;;38.67;30.33;;;;;;;;4963438;28;45556;-77
2023/06/01 04:18:52;;;;;;;;;25.67;21.33;;;;;;;;4968474;28;45729;-78
2023/06/01 04:21:20;;;;;;;;;37.67;32.00;;;;;;;;4955179;28;45350;-79
2023/06/01 04:23:45;;;;;;;;;33.33;27.33;;;;;;;;4951904;28;45441;-78
2023/06/01 04:26:10;;;;;;;;;28.67;24.00;;;;;;;;4940697;28;45426;-77
2023/06/01 04:28:36;;;;;;;;;28.00;22.00;;;;;;;;4952951;28;45950;-78
2023/06/01 04:31:02;;;;;;;;;30.33;24.33;;;;;;;;4952379;28;45419;-79
2023/06/01 04:33:27;;;;;;;;;33.67;28.00;;;;;;;;4966533;28;45556;-79
2023/06/01 04:35:53;;;;;;;;;33.33;31.00;;;;;;;;4960808;28;45820;-79
2023/06/01 04:38:19;;;;;;;;;28.33;27.33;;;;;;;;4947679;28;46753;-80
2023/06/01 04:40:45;;;;;;;;;34.67;26.00;;;;;;;;4946646;28;45834;-79
2023/06/01 04:43:11;;;;;;;;;27.67;26.00;;;;;;;;4953836;28;45495;-79
2023/06/01 04:45:38;;;;;;;;;37.67;29.33;;;;;;;;4952511;28;45858;-78
2023/06/01 04:48:08;;;;;;;;;33.33;29.67;;;;;;;;4953710;28;46835;-79
2023/06/01 04:50:34;;;;;;;;;28.67;24.00;;;;;;;;4951986;28;45476;-81
2023/06/01 04:53:00;;;;;;;;;36.67;29.00;;;;;;;;4943877;28;45839;-80
2023/06/01 04:55:26;;;;;;;;;32.33;27.33;;;;;;;;4951801;28;45934;-80
2023/06/01 04:57:51;;;;;;;;;30.33;25.67;;;;;;;;4950158;28;45342;-80
2023/06/01 05:00:18;;;;;;;;;27.00;24.00;;;;;;;;4938464;28;45833;-78
2023/06/01 05:02:44;;;;;;;;;27.00;22.00;;;;;;;;4952267;28;46357;-80
2023/06/01 05:05:10;;;;;;;;;24.33;23.00;;;;;;;;4947993;28;45740;-80
2023/06/01 05:07:36;;;;;;;;;34.00;26.67;;;;;;;;4943127;28;45418;-79
2023/06/01 05:10:05;;;;;;;;;31.33;27.67;;;;;;;;4948204;28;45780;-85
2023/06/01 05:12:30;;;;;;;;;31.00;27.33;;;;;;;;4945128;28;45485;-85
2023/06/01 05:14:57;;;;;;;;;21.33;19.00;;;;;;;;4948746;28;45580;-88
2023/06/01 05:17:22;;;;;;;;;24.67;21.33;;;;;;;;4950797;28;47466;-80
2023/06/01 05:19:48;;;;;;;;;28.67;26.67;;;;;;;;4962033;28;45681;-81
2023/06/01 05:22:13;;;;;;;;;25.67;21.00;;;;;;;;4953678;28;45941;-84
2023/06/01 05:24:38;;;;;;;;;28.67;27.67;;;;;;;;4957072;28;45463;-83
2023/06/01 05:27:04;;;;;;;;;23.33;19.67;;;;;;;;4969731;28;46996;-84
2023/06/01 05:29:30;;;;;;;;;36.00;29.33;;;;;;;;4965878;28;45856;-82
2023/06/01 05:31:56;;;;;;;;;26.33;22.33;;;;;;;;4973737;28;44868;-82
2023/06/01 05:34:22;;;;;;;;;28.00;25.00;;;;;;;;4962469;28;46656;-82
2023/06/01 05:36:48;;;;;;;;;28.00;19.00;;;;;;;;4980607;28;45520;-81
2023/06/01 05:39:14;;;;;;;;;27.67;25.33;;;;;;;;4945377;28;45550;-82
2023/06/01 05:41:40;;;;;;;;;25.00;19.67;;;;;;;;4948172;28;45894;-82
2023/06/01 05:44:05;;;;;;;;;35.67;21.67;;;;;;;;4956488;28;46040;-83
2023/06/01 05:46:31;;;;;;;;;28.00;26.67;;;;;;;;4961866;28;46153;-82
2023/06/01 05:48:56;;;;;;;;;27.33;25.67;;;;;;;;4961402;28;45559;-85
2023/06/01 05:51:21;;;;;;;;;26.00;24.00;;;;;;;;4961541;28;45625;-85
2023/06/01 05:53:46;;;;;;;;;31.00;27.67;;;;;;;;4952586;28;45493;-84
2023/06/01 05:56:12;;;;;;;;;31.33;26.00;;;;;;;;4957918;28;45464;-84
2023/06/01 05:58:37;;;;;;;;;32.00;28.67;;;;;;;;4947635;28;45382;-82
2023/06/01 06:01:03;;;;;;;;;27.33;24.67;;;;;;;;4959040;28;45286;-85
2023/06/01 06:03:28;;;;;;;;;25.33;20.33;;;;;;;;4950673;28;45931;-83
2023/06/01 06:05:54;;;;;;;;;22.33;19.33;;;;;;;;4960578;28;46754;-85
2023/06/01 06:08:19;;;;;;;;;33.00;29.00;;;;;;;;4956895;28;46667;-84
2023/06/01 06:10:45;;;;;;;;;31.00;29.33;;;;;;;;4962833;28;45430;-83
2023/06/01 06:13:11;;;;;;;;;28.67;24.00;;;;;;;;4950703;28;45568;-82
2023/06/01 06:15:36;;;;;;;;;37.00;31.00;;;;;;;;4950205;28;47799;-84
2023/06/01 06:18:02;;;;;;;;;28.33;26.33;;;;;;;;4939225;28;45408;-83
2023/06/01 06:20:27;;;;;;;;;32.00;28.00;;;;;;;;4956984;28;45817;-82
2023/06/01 06:22:53;;;;;;;;;26.67;23.00;;;;;;;;4953579;28;46063;-81
2023/06/01 06:25:18;;;;;;;;;35.67;31.67;;;;;;;;4948737;28;46870;-82
2023/06/01 06:27:45;;;;;;;;;33.00;28.67;;;;;;;;4954504;28;45516;-84
2023/06/01 06:30:10;;;;;;;;;28.33;23.00;;;;;;;;4945647;28;45619;-82
2023/06/01 06:32:36;;;;;;;;;34.00;25.67;;;;;;;;4960228;28;45431;-85
2023/06/01 06:35:02;;;;;;;;;30.67;29.33;;;;;;;;4953792;28;46924;-83
2023/06/01 06:37:28;;;;;;;;;26.33;23.67;;;;;;;;4962459;28;45790;-82
2023/06/01 06:39:55;;;;;;;;;26.67;23.33;;;;;;;;4945492;28;46028;-81
2023/06/01 06:42:21;;;;;;;;;27.00;23.00;;;;;;;;4957274;28;45421;-82
2023/06/01 06:44:47;;;;;;;;;29.33;25.67;;;;;;;;4951720;28;46994;-83
2023/06/01 06:47:15;;;;;;;;;28.33;21.67;;;;;;;;4954933;28;46083;-81
2023/06/01 06:49:40;;;;;;;;;31.00;22.33;;;;;;;;4966765;28;46109;-82
2023/06/01 06:52:06;;;;;;;;;30.00;23.00;;;;;;;;4962228;28;45790;-81
2023/06/01 06:54:31;;;;;;;;;40.33;32.00;;;;;;;;4959702;28;47939;-81
2023/06/01 06:56:57;;;;;;;;;45.67;36.67;;;;;;;;4968217;28;45098;-84
2023/06/01 06:59:22;;;;;;;;;27.00;23.00;;;;;;;;4973650;28;45864;-81
2023/06/01 07:01:47;;;;;;;;;30.67;25.67;;;;;;;;4967190;28;45390;-81
2023/06/01 07:04:13;;;;;;;;;26.67;26.00;;;;;;;;4982857;28;45345;-81
2023/06/01 07:06:38;;;;;;;;;31.67;25.33;;;;;;;;4960995;28;44802;-80
2023/06/01 07:09:05;;;;;;;;;28.00;24.67;;;;;;;;4978233;28;45498;-81
2023/06/01 07:11:31;;;;;;;;;26.33;25.67;;;;;;;;4963927;28;46433;-82
2023/06/01 07:13:57;;;;;;;;;29.67;25.33;;;;;;;;4962222;28;46079;-79
2023/06/01 07:16:24;;;;;;;;;29.67;28.67;;;;;;;;4960054;28;45467;-81
2023/06/01 07:18:50;;;;;;;;;30.33;25.33;;;;;;;;4964636;28;45250;-80
2023/06/01 07:21:16;;;;;;;;;21.67;19.33;;;;;;;;4974360;28;45451;-79
2023/06/01 07:23:42;;;;;;;;;22.00;19.00;;;;;;;;4985605;28;46365;-81
2023/06/01 07:26:07;;;;;;;;;33.00;27.00;;;;;;;;4990849;28;45396;-78
2023/06/01 07:28:32;;;;;;;;;22.00;20.00;;;;;;;;4976912;28;45260;-81
2023/06/01 07:30:58;;;;;;;;;28.33;23.67;;;;;;;;4986611;28;46662;-79
2023/06/01 07:33:25;;;;;;;;;24.00;22.33;;;;;;;;4985421;28;45880;-81
2023/06/01 07:35:52;;;;;;;;;23.67;23.67;;;;;;;;4962358;28;45655;-81
2023/06/01 07:38:18;;;;;;;;;26.00;21.33;;;;;;;;4972001;28;45709;-82
2023/06/01 07:40:43;;;;;;;;;27.67;22.33;;;;;;;;4974979;28;45577;-82
2023/06/01 07:43:08;;;;;;;;;25.67;22.67;;;;;;;;4985458;28;47096;-82
2023/06/01 07:45:34;;;;;;;;;23.33;22.00;;;;;;;;4972737;28;44998;-82
2023/06/01 07:48:03;;;;;;;;;23.67;22.33;;;;;;;;4993093;28;45342;-82
2023/06/01 07:50:30;;;;;;;;;25.00;24.00;;;;;;;;4965804;28;44774;-81
2023/06/01 07:52:56;;;;;;;;;23.67;22.33;;;;;;;;4974771;28;45592;-81
2023/06/01 07:55:22;;;;;;;;;28.67;22.00;;;;;;;;4977440;28;44912;-82
2023/06/01 07:57:47;;;;;;;;;26.67;24.00;;;;;;;;4976804;28;45154;-80
2023/06/01 08:00:17;;;;;;;;;23.33;23.00;;;;;;;;4971388;28;44844;-79
2023/06/01 08:02:42;;;;;;;;;26.00;25.33;;;;;;;;4973371;28;46212;-81
2023/06/01 08:05:07;;;;;;;;;24.33;16.67;;;;;;;;4952645;28;45680;-80
2023/06/01 08:07:33;;;;;;;;;24.00;24.00;;;;;;;;4965408;28;45291;-80
2023/06/01 08:09:58;;;;;;;;;21.67;20.67;;;;;;;;4977947;28;45373;-82
2023/06/01 08:12:25;;;;;;;;;25.00;23.00;;;;;;;;4989953;28;45169;-80
2023/06/01 08:14:51;;;;;;;;;26.33;24.00;;;;;;;;4952112;28;45531;-81
2023/06/01 08:17:18;;;;;;;;;24.00;19.00;;;;;;;;4970476;28;45353;-81
2023/06/01 08:19:44;;;;;;;;;28.67;23.67;;;;;;;;4970605;28;45354;-81
2023/06/01 08:22:09;;;;;;;;;29.33;25.33;;;;;;;;4976759;28;45179;-79
2023/06/01 08:24:35;;;;;;;;;19.67;19.67;;;;;;;;4969346;28;45737;-81
2023/06/01 08:27:00;;;;;;;;;17.00;16.00;;;;;;;;4965921;28;45920;-80
2023/06/01 08:29:25;;;;;;;;;19.33;15.67;;;;;;;;4965042;28;45797;-79
2023/06/01 08:31:51;;;;;;;;;20.00;19.67;;;;;;;;4964536;28;45519;-81
2023/06/01 08:34:16;;;;;;;;;22.33;18.33;;;;;;;;4960912;28;45841;-81
2023/06/01 08:36:41;;;;;;;;;17.33;17.33;;;;;;;;4957573;28;45468;-81
2023/06/01 08:39:19;;;;;;;;;22.67;21.67;;;;;;;;4955962;28;45190;-82
2023/06/01 08:41:49;;;;;;;;;21.00;20.00;;;;;;;;4975002;28;46857;-82
2023/06/01 08:44:17;;;;;;;;;20.33;19.00;;;;;;;;4953121;28;45500;-81
2023/06/01 08:46:42;;;;;;;;;23.00;21.67;;;;;;;;4950660;28;44838;-79
2023/06/01 08:49:11;;;;;;;;;21.67;21.67;;;;;;;;4948907;28;45449;-79
2023/06/01 08:51:38;;;;;;;;;21.67;20.33;;;;;;;;4960259;28;45276;-81
2023/06/01 08:54:09;;;;;;;;;21.67;18.00;;;;;;;;4959414;28;45602;-81
2023/06/01 08:56:35;;;;;;;;;19.33;16.67;;;;;;;;4954860;28;45718;-81
2023/06/01 08:59:01;;;;;;;;;22.67;22.33;;;;;;;;4958064;28;45758;-81
2023/06/01 09:01:27;;;;;;;;;22.00;21.33;;;;;;;;4967417;28;45410;-83
2023/06/01 09:03:52;;;;;;;;;22.67;18.33;;;;;;;;4966273;28;45886;-81
2023/06/01 09:06:18;;;;;;;;;23.00;19.00;;;;;;;;4956900;28;46191;-84
2023/06/01 09:08:46;;;;;;;;;16.33;16.33;;;;;;;;4959346;28;45547;-80
2023/06/01 09:11:11;;;;;;;;;25.00;22.00;;;;;;;;4945446;28;45491;-79
2023/06/01 09:13:38;;;;;;;;;22.67;21.33;;;;;;;;4956393;28;45366;-80
2023/06/01 09:16:04;;;;;;;;;28.33;21.67;;;;;;;;4950124;28;45445;-81
2023/06/01 09:18:30;;;;;;;;;24.33;22.67;;;;;;;;4949033;28;45900;-81
2023/06/01 09:21:09;;;;;;;;;19.00;18.00;;;;;;;;4939733;28;46549;-80
2023/06/01 09:23:34;;;;;;;;;21.33;20.00;;;;;;;;4955456;28;45614;-80
2023/06/01 09:26:06;;;;;;;;;17.00;16.00;;;;;;;;4951636;28;45922;-82
2023/06/01 09:29:07;;;;;;;;;25.33;23.00;;;;;;;;4955283;28;45800;-81
2023/06/01 09:31:36;;;;;;;;;22.33;18.00;;;;;;;;4874877;29;45422;-80
2023/06/01 09:34:02;;;;;;;;;22.67;19.33;;;;;;;;4934761;28;45698;-81
2023/06/01 09:36:27;;;;;;;;;23.67;19.67;;;;;;;;4973388;28;45562;-82
2023/06/01 09:39:00;;;;;;;;;23.67;21.33;;;;;;;;4964290;28;45733;-82
2023/06/01 09:41:25;;;;;;;;;18.67;15.33;;;;;;;;4954121;28;47082;-80
2023/06/01 09:43:50;;;;;;;;;18.67;16.67;;;;;;;;4964940;28;45481;-81
2023/06/01 09:46:17;;;;;;;;;24.67;22.00;;;;;;;;4958113;28;45668;-82
2023/06/01 09:48:44;;;;;;;;;18.00;18.00;;;;;;;;4967833;28;45734;-82
2023/06/01 09:51:34;;;;;;;;;11.00;11.00;;;;;;;;4951521;28;46687;-83
2023/06/01 09:54:00;;;;;;;;;17.33;16.67;;;;;;;;4954246;28;45860;-85
2023/06/01 09:56:26;;;;;;;;;22.33;19.33;;;;;;;;4965876;28;45448;-83
2023/06/01 09:58:58;;;;;;;;;25.00;19.67;;;;;;;;4955022;28;45541;-83
2023/06/01 10:01:24;;;;;;;;;19.33;15.33;;;;;;;;4950253;28;45486;-85
2023/06/01 10:03:53;;;;;;;;;22.00;15.33;;;;;;;;4957879;28;45493;-82
2023/06/01 10:06:18;;;;;;;;;20.67;18.67;;;;;;;;4952303;28;45532;-83
2023/06/01 10:08:45;;;;;;;;;17.00;17.00;;;;;;;;4951095;28;45434;-84
2023/06/01 10:11:10;;;;;;;;;21.67;18.67;;;;;;;;4961303;28;45460;-84
2023/06/01 10:13:35;;;;;;;;;21.33;20.33;;;;;;;;4949632;28;44816;-83
2023/06/01 10:16:04;;;;;;;;;21.33;20.00;;;;;;;;4952499;28;45497;-86
2023/06/01 10:18:30;;;;;;;;;14.67;14.67;;;;;;;;4945045;28;45346;-83
2023/06/01 10:20:56;;;;;;;;;15.33;13.00;;;;;;;;4960965;28;47793;-83
2023/06/01 10:23:27;;;;;;;;;20.00;19.00;;;;;;;;4967826;28;45423;-85
2023/06/01 10:25:53;;;;;;;;;16.00;14.67;;;;;;;;4959805;28;45984;-84
2023/06/01 10:28:19;;;;;;;;;18.00;16.00;;;;;;;;4971410;28;44782;-84
2023/06/01 10:30:46;;;;;;;;;19.00;14.33;;;;;;;;4974779;28;45649;-86
2023/06/01 10:33:12;;;;;;;;;18.00;16.67;;;;;;;;4981633;28;45119;-83
2023/06/01 10:35:40;;;;;;;;;16.00;13.00;;;;;;;;4957780;28;45407;-85
2023/06/01 10:38:06;;;;;;;;;16.33;15.00;;;;;;;;4959192;28;45699;-83
2023/06/01 10:40:33;;;;;;;;;18.67;15.33;;;;;;;;4960111;28;47221;-84
2023/06/01 10:42:58;;;;;;;;;17.00;16.00;;;;;;;;4964651;28;44963;-83
2023/06/01 10:45:35;;;;;;;;;19.00;15.33;;;;;;;;4961048;28;45882;-86
2023/06/01 10:48:01;;;;;;;;;11.67;11.67;;;;;;;;4962070;28;45916;-84
2023/06/01 10:50:26;;;;;;;;;18.67;17.00;;;;;;;;4960834;28;45147;-84
2023/06/01 10:52:53;;;;;;;;;15.00;14.00;;;;;;;;4951996;28;45417;-84
2023/06/01 10:55:23;;;;;;;;;16.00;14.33;;;;;;;;4962859;28;45334;-85
2023/06/01 10:58:07;;;;;;;;;15.00;14.67;;;;;;;;4954447;28;45896;-87
2023/06/01 11:00:38;;;;;;;;;11.00;11.00;;;;;;;;4945133;28;46596;-82
2023/06/01 11:03:04;;;;;;;;;13.67;12.33;;;;;;;;4953325;28;45898;-83
2023/06/01 11:05:48;;;;;;;;;17.67;16.00;;;;;;;;4952515;28;45596;-84
2023/06/01 11:08:22;;;;;;;;;16.00;15.00;;;;;;;;4947872;28;45488;-86
2023/06/01 11:10:50;;;;;;;;;14.67;12.67;;;;;;;;4956113;28;45911;-85
2023/06/01 11:13:18;;;;;;;;;17.33;14.33;;;;;;;;4953555;28;45471;-86
2023/06/01 11:16:02;;;;;;;;;15.67;12.67;;;;;;;;4953449;28;45765;-83
2023/06/01 11:19:10;;;;;;;;;16.67;15.00;;;;;;;;4950638;28;45695;-82
2023/06/01 11:21:36;;;;;;;;;18.67;16.33;;;;;;;;4947759;28;46233;-83
2023/06/01 11:24:04;;;;;;;;;20.67;19.67;;;;;;;;4950966;28;46070;-82
2023/06/01 11:26:34;;;;;;;;;16.33;13.67;;;;;;;;4950101;28;45955;-83
2023/06/01 11:29:12;;;;;;;;;19.67;15.67;;;;;;;;4955490;28;46073;-84
2023/06/01 11:31:45;;;;;;;;;13.67;13.67;;;;;;;;4953086;28;45500;-83
2023/06/01 11:34:11;;;;;;;;;18.33;13.33;;;;;;;;4963737;28;45715;-84
2023/06/01 11:36:39;;;;;;;;;21.67;16.33;;;;;;;;4950703;28;45724;-84
2023/06/01 11:39:07;;;;;;;;;12.67;12.67;;;;;;;;4951813;28;46420;-84
2023/06/01 11:41:33;;;;;;;;;15.00;12.00;;;;;;;;4961484;28;46168;-84
2023/06/01 11:43:58;;;;;;;;;18.33;15.00;;;;;;;;4960138;28;45397;-82
2023/06/01 11:46:24;;;;;;;;;22.33;16.67;;;;;;;;4956122;28;45882;-84
2023/06/01 11:49:05;;;;;;;;;16.67;13.67;;;;;;;;4959830;28;45381;-86
2023/06/01 11:51:33;;;;;;;;;20.00;14.67;;;;;;;;4956330;28;47029;-84
2023/06/01 11:54:03;;;;;;;;;18.67;14.67;;;;;;;;4959985;28;45732;-84
2023/06/01 11:56:31;;;;;;;;;15.00;12.33;;;;;;;;4963009;28;45886;-83
2023/06/01 11:58:58;;;;;;;;;14.00;9.33;;;;;;;;4956003;28;45758;-84
2023/06/01 12:01:24;;;;;;;;;24.67;23.67;;;;;;;;4950221;28;46096;-85
2023/06/01 12:03:50;;;;;;;;;17.00;14.00;;;;;;;;4952526;28;45770;-83
2023/06/01 12:06:19;;;;;;;;;26.00;18.67;;;;;;;;4952967;28;46507;-82
2023/06/01 12:08:44;;;;;;;;;19.33;16.67;;;;;;;;4953214;28;45557;-82
2023/06/01 12:11:11;;;;;;;;;20.67;15.67;;;;;;;;4953435;28;45928;-82
2023/06/01 12:13:37;;;;;;;;;14.00;10.67;;;;;;;;4950595;28;45980;-83
2023/06/01 12:16:02;;;;;;;;;31.00;27.33;;;;;;;;4951957;28;45780;-84
2023/06/01 12:18:28;;;;;;;;;19.00;19.00;;;;;;;;4954874;28;46170;-84
2023/06/01 12:20:53;;;;;;;;;12.00;7.33;;;;;;;;4957807;28;45480;-86
2023/06/01 12:23:20;;;;;;;;;14.00;12.67;;;;;;;;4959446;28;45392;-85
2023/06/01 12:25:49;;;;;;;;;17.00;14.33;;;;;;;;4971846;28;46043;-82
2023/06/01 12:28:15;;;;;;;;;11.33;10.00;;;;;;;;4964216;28;44854;-84
2023/06/01 12:30:41;;;;;;;;;18.67;14.67;;;;;;;;4973521;28;45194;-83
2023/06/01 12:33:06;;;;;;;;;12.00;9.33;;;;;;;;4968929;28;45560;-84
2023/06/01 12:35:31;;;;;;;;;17.67;16.33;;;;;;;;4984423;28;45103;-82
2023/06/01 12:38:04;;;;;;;;;15.00;12.33;;;;;;;;4969779;28;45931;-82
2023/06/01 12:40:30;;;;;;;;;22.67;15.33;;;;;;;;4986565;28;45937;-82
2023/06/01 12:42:55;;;;;;;;;14.00;12.67;;;;;;;;4972990;28;45535;-82
2023/06/01 12:45:20;;;;;;;;;17.00;14.00;;;;;;;;4975717;28;45815;-81
2023/06/01 12:47:45;;;;;;;;;15.00;13.67;;;;;;;;4963233;28;45552;-81
2023/06/01 12:50:12;;;;;;;;;11.00;11.00;;;;;;;;4955459;28;45353;-81
2023/06/01 12:52:39;;;;;;;;;17.00;16.00;;;;;;;;4965008;28;45122;-82
2023/06/01 12:55:05;;;;;;;;;20.67;18.67;;;;;;;;4972321;28;44795;-82
2023/06/01 12:57:30;;;;;;;;;15.67;15.67;;;;;;;;4975048;28;44826;-83
2023/06/01 12:59:56;;;;;;;;;16.33;11.00;;;;;;;;4957342;28;45458;-82
2023/06/01 13:02:21;;;;;;;;;11.67;11.33;;;;;;;;4959571;28;45825;-83
2023/06/01 13:04:46;;;;;;;;;16.33;14.00;;;;;;;;4952760;28;45733;-81
2023/06/01 13:07:12;;;;;;;;;17.33;13.67;;;;;;;;4949107;28;45847;-83
2023/06/01 13:09:37;;;;;;;;;16.67;13.67;;;;;;;;4971284;28;46236;-84
2023/06/01 13:12:03;;;;;;;;;17.33;13.67;;;;;;;;4953241;28;45405;-83
2023/06/01 13:14:29;;;;;;;;;13.67;13.67;;;;;;;;4984038;28;45461;-85
2023/06/01 13:16:55;;;;;;;;;17.67;15.00;;;;;;;;4956955;28;45720;-85
2023/06/01 13:19:20;;;;;;;;;14.33;12.33;;;;;;;;4944946;28;45309;-84
2023/06/01 13:21:46;;;;;;;;;15.67;12.00;;;;;;;;4955709;28;45649;-81
2023/06/01 13:24:11;;;;;;;;;20.33;17.33;;;;;;;;4956381;28;45417;-83
2023/06/01 13:26:37;;;;;;;;;18.33;15.33;;;;;;;;4961504;28;45938;-85
2023/06/01 13:29:06;;;;;;;;;18.33;16.33;;;;;;;;4960384;28;46247;-84
2023/06/01 13:31:32;;;;;;;;;11.33;8.33;;;;;;;;4942654;28;45447;-82
2023/06/01 13:33:59;;;;;;;;;16.67;16.67;;;;;;;;4947152;28;45699;-84
2023/06/01 13:36:24;;;;;;;;;24.00;14.67;;;;;;;;4959508;28;45876;-82
2023/06/01 13:38:50;;;;;;;;;17.33;16.67;;;;;;;;4958178;28;46053;-83
2023/06/01 13:41:15;;;;;;;;;18.00;16.33;;;;;;;;4953920;28;45486;-84
2023/06/01 13:43:41;;;;;;;;;13.67;10.67;;;;;;;;4959424;28;46072;-83
2023/06/01 13:46:07;;;;;;;;;15.33;12.33;;;;;;;;4958619;28;45395;-84
2023/06/01 13:48:33;;;;;;;;;17.00;12.67;;;;;;;;4947834;28;47354;-82
2023/06/01 13:50:59;;;;;;;;;14.00;13.33;;;;;;;;4953593;28;45326;-82
2023/06/01 13:53:24;;;;;;;;;17.67;16.00;;;;;;;;4970216;28;45853;-82
2023/06/01 13:55:49;;;;;;;;;12.67;12.33;;;;;;;;4948838;28;46100;-86
2023/06/01 13:58:14;;;;;;;;;15.67;11.67;;;;;;;;4960214;28;46961;-85
2023/06/01 14:00:40;;;;;;;;;10.67;10.33;;;;;;;;4955003;28;45735;-86
2023/06/01 14:03:05;;;;;;;;;16.67;16.67;;;;;;;;4945883;28;45800;-84
2023/06/01 14:05:31;;;;;;;;;11.00;10.00;;;;;;;;4966215;28;45378;-84
2023/06/01 14:07:56;;;;;;;;;18.67;14.67;;;;;;;;4939238;28;46910;-83
2023/06/01 14:10:21;;;;;;;;;15.33;13.67;;;;;;;;4950462;28;45910;-82
2023/06/01 14:12:47;;;;;;;;;13.67;13.67;;;;;;;;4951333;28;45407;-85
2023/06/01 14:15:12;;;;;;;;;16.67;12.67;;;;;;;;4954146;28;45652;-83